This demonstration page uses our WeatherBlox Daily Observations layout. Learn more.

Left ArrowRight Arrow

38.88101, -77.10428

Hourly Observations for July 8, 2016

Temp ( °F °C ) Dew Point ( °F °C ) Humidity (%) Winds ( mph kmh ) Pressure ( in mb ) Visibility ( mi km ) Precip ( " mm )
12:52 am 00:52 Mostly Cloudy 83 28.3 69 20.6 63 63 NW 12 19 29.82 1010 10 16.0934 0 0
1:52 am 01:52 Mostly Cloudy 82 27.8 68 20 63 63 VRB 3 6 29.8 1009 10 16.0934 0 0
2:52 am 02:52 Partly Cloudy 79 26.1 68 20 69 69 VRB 6 9 29.8 1009 10 16.0934 0 0
3:52 am 03:52 Clear 80 26.7 68 20 67 67 Calm 29.8 1009 10 16.0934 0 0
4:52 am 04:52 Mostly Clear 79 26.1 68 20 69 69 NW 3 6 29.8 1009 10 16.0934 0 0
5:52 am 05:52 Partly Cloudy 78 25.6 68 20 71 71 VRB 5 7 29.82 1010 10 16.0934 0 0
6:52 am 06:52 Partly Cloudy 79 26.1 68 20 69 69 VRB 3 6 29.83 1010 10 16.0934 0 0
7:52 am 07:52 Partly Cloudy 81 27.2 69 20.6 67 67 NNW 13 20 29.83 1010 10 16.0934 0 0
8:52 am 08:52 Partly Cloudy 83 28.3 70 21.1 65 65 NW 9 15 29.84 1010 10 16.0934 0 0
9:52 am 09:52 Sunny 85 29.4 71 21.7 63 63 NNW 9 15 29.83 1010 10 16.0934 0 0
10:52 am 10:52 Partly Cloudy 87 30.6 72 22.2 61 61 N 10 17 29.84 1010 10 16.0934 0 0
11:52 am 11:52 Partly Cloudy 90 32.2 71 21.7 54 54 ESE 3 6 29.82 1010 10 16.0934 0 0
1:52 pm 13:52 Mostly Cloudy 89 31.7 73 22.8 59 59 S 14 22 29.8 1009 10 16.0934 0 0
3:05 pm 15:05 Mostly Cloudy 89 31.7 72 22.2 57 57 SSW 10 17 29.77 1008 10 16.0934 0 0
3:52 pm 15:52 Mostly Cloudy with Light Rain 82 27.8 74 23.3 77 77 NW 24 39 29.79 1009 8 12.87472 0 0.0254
4:06 pm 16:06 Cloudy with Light Rain 81 27 75 24 84 84 N 10 17 29.8 1009 7 11.26538 0 0
5:52 pm 17:52 Mostly Cloudy 84 28.9 75 23.9 74 74 Calm 29.79 1009 10 16.0934 0 0
6:12 pm 18:12 Partly Cloudy 84 29 75 24 74 74 SSE 6 9 29.77 1008 10 16.0934 0 0
6:52 pm 18:52 Partly Cloudy 84 28.9 77 25 80 80 S 12 19 29.78 1009 10 16.0934 0 0
10:52 pm 22:52 Mostly Cloudy 80 26.7 76 24.4 87 87 S 6 9 29.78 1008 10 16.0934 0 0
11:52 pm 23:52 Mostly Cloudy 79 26.1 75 23.9 88 88 S 5 7 29.79 1009 10 16.0934 0 0

Powered by AerisWeather